Time;durP1;ratioP1;P1;durP2;ratioP2;P2;SDS_P1;SDS_P2;PMS_P1;PMS_P2;Temp;Humidity;BMP_temperature;BMP_pressure;BME280_temperature;BME280_humidity;BME280_pressure;Samples;Min_cycle;Max_cycle;Signal;HPM_P1;HPM_P2
2022/06/05 00:00:39;;;;;;;18.30;11.43;;;11.70;99.90;;;;;;4971322;28;20053;-57
2022/06/05 00:03:30;;;;;;;16.38;11.30;;;11.70;99.90;;;;;;4974101;28;20058;-58
2022/06/05 00:06:05;;;;;;;17.27;11.15;;;11.70;99.90;;;;;;4991564;28;20131;-54
2022/06/05 00:08:55;;;;;;;17.02;11.50;;;11.70;99.90;;;;;;4974656;28;20050;-58
2022/06/05 00:11:22;;;;;;;20.58;11.95;;;11.70;99.90;;;;;;4956092;28;20042;-56
2022/06/05 00:13:52;;;;;;;19.10;12.35;;;11.70;99.90;;;;;;4967370;28;20225;-58
2022/06/05 00:16:24;;;;;;;15.93;12.35;;;11.60;99.90;;;;;;4972038;28;20129;-58
2022/06/05 00:18:50;;;;;;;18.75;11.57;;;11.70;99.90;;;;;;4992688;28;20580;-58
2022/06/05 00:21:17;;;;;;;17.83;11.15;;;11.70;99.90;;;;;;4972819;28;20042;-57
2022/06/05 00:23:42;;;;;;;20.23;12.45;;;11.70;99.90;;;;;;4978062;28;20034;-58
2022/06/05 00:26:19;;;;;;;18.58;12.05;;;11.80;99.90;;;;;;4977435;28;20034;-58
2022/06/05 00:28:56;;;;;;;15.77;12.50;;;11.80;99.90;;;;;;4989506;28;20050;-58
2022/06/05 00:31:40;;;;;;;16.23;11.38;;;11.80;99.90;;;;;;4990311;28;20052;-58
2022/06/05 00:34:07;;;;;;;15.00;10.52;;;11.90;99.90;;;;;;4969454;28;20044;-58
2022/06/05 00:37:17;;;;;;;18.13;11.40;;;11.90;99.90;;;;;;4958872;28;20476;-57
2022/06/05 00:40:04;;;;;;;19.77;12.93;;;11.90;99.90;;;;;;4994458;28;20050;-58
2022/06/05 00:42:32;;;;;;;20.08;11.88;;;12.00;99.90;;;;;;4990128;28;20050;-56
2022/06/05 00:45:01;;;;;;;28.20;13.13;;;12.00;99.90;;;;;;4973110;28;20046;-56
2022/06/05 00:47:32;;;;;;;20.33;13.30;;;12.00;99.90;;;;;;4960602;28;20061;-57
2022/06/05 00:49:59;;;;;;;18.90;12.23;;;12.00;99.90;;;;;;4969000;28;20046;-57
2022/06/05 00:52:28;;;;;;;19.20;12.82;;;12.10;99.90;;;;;;4991308;28;20042;-57
2022/06/05 00:54:54;;;;;;;18.15;12.75;;;12.10;99.90;;;;;;4973935;28;20128;-57
2022/06/05 00:57:21;;;;;;;20.55;12.85;;;12.10;99.90;;;;;;4976183;28;20239;-55
2022/06/05 00:59:48;;;;;;;17.42;12.15;;;12.10;99.90;;;;;;4978736;28;20742;-58
2022/06/05 01:02:14;;;;;;;18.75;13.68;;;12.10;99.90;;;;;;4976105;28;20394;-57
2022/06/05 01:04:43;;;;;;;21.98;12.73;;;12.10;99.90;;;;;;4976079;28;20182;-56
2022/06/05 01:07:10;;;;;;;25.23;13.77;;;12.10;99.90;;;;;;4994191;28;20256;-56
2022/06/05 01:09:37;;;;;;;21.58;13.23;;;12.10;99.90;;;;;;4973855;28;20133;-58
2022/06/05 01:12:13;;;;;;;23.48;13.82;;;12.10;99.90;;;;;;4967300;28;20319;-57
2022/06/05 01:14:44;;;;;;;20.80;13.63;;;12.10;99.90;;;;;;4976087;28;20046;-56
2022/06/05 01:17:34;;;;;;;22.42;13.40;;;12.10;99.90;;;;;;4973823;28;20078;-56
2022/06/05 01:20:24;;;;;;;21.85;12.60;;;12.10;99.90;;;;;;4973717;28;20046;-57
2022/06/05 01:23:17;;;;;;;22.02;12.93;;;12.20;99.90;;;;;;4974002;28;20527;-58
2022/06/05 01:25:47;;;;;;;22.73;13.05;;;12.10;99.90;;;;;;4972918;28;20038;-57
2022/06/05 01:28:24;;;;;;;19.90;13.38;;;12.10;99.90;;;;;;4966703;28;20424;-58
2022/06/05 01:31:19;;;;;;;20.48;12.52;;;12.10;99.90;;;;;;4975366;28;20078;-57
2022/06/05 01:34:09;;;;;;;21.58;12.88;;;12.10;99.90;;;;;;4960838;28;21191;-58
2022/06/05 01:36:45;;;;;;;23.17;12.68;;;12.10;99.90;;;;;;4972294;28;20054;-57
2022/06/05 01:39:15;;;;;;;26.58;12.75;;;12.10;99.90;;;;;;4961161;28;22068;-58
2022/06/05 01:41:48;;;;;;;19.50;12.52;;;12.10;99.90;;;;;;4975400;28;20049;-57
2022/06/05 01:44:38;;;;;;;16.10;11.27;;;12.20;99.90;;;;;;4975715;28;20560;-57
2022/06/05 01:47:19;;;;;;;21.38;11.88;;;12.10;99.90;;;;;;4976070;28;20516;-57
2022/06/05 01:49:56;;;;;;;25.95;13.27;;;12.20;99.90;;;;;;4972713;28;20042;-57
2022/06/05 01:52:29;;;;;;;18.58;12.10;;;12.10;99.90;;;;;;4974543;28;20049;-57
2022/06/05 01:54:59;;;;;;;14.75;9.98;;;12.10;99.90;;;;;;4960045;28;20037;-57
2022/06/05 01:57:26;;;;;;;23.70;12.80;;;12.20;99.90;;;;;;4975416;28;20042;-57
2022/06/05 01:59:58;;;;;;;21.92;13.00;;;12.10;99.90;;;;;;4975883;28;20057;-57
2022/06/05 02:02:35;;;;;;;18.98;11.98;;;12.10;99.90;;;;;;4957050;28;20439;-58
2022/06/05 02:05:08;;;;;;;18.48;11.80;;;12.10;99.90;;;;;;4960306;28;20137;-58
2022/06/05 02:07:39;;;;;;;18.25;11.40;;;12.10;99.90;;;;;;4963519;28;20567;-57
2022/06/05 02:10:08;;;;;;;16.30;10.48;;;12.10;99.90;;;;;;4971967;28;20038;-58
2022/06/05 02:12:34;;;;;;;15.73;11.13;;;12.20;99.90;;;;;;4976267;28;20520;-58
2022/06/05 02:15:01;;;;;;;17.05;11.88;;;12.10;99.90;;;;;;4972903;28;20038;-56
2022/06/05 02:17:29;;;;;;;13.57;10.95;;;12.20;99.90;;;;;;4955716;28;20065;-58
2022/06/05 02:19:54;;;;;;;17.77;11.27;;;12.10;99.90;;;;;;4970022;28;20516;-58
2022/06/05 02:22:46;;;;;;;17.80;11.13;;;12.20;99.90;;;;;;4971287;28;20039;-58
2022/06/05 02:25:13;;;;;;;17.67;11.52;;;12.20;99.90;;;;;;4973296;28;20089;-53
2022/06/05 02:27:40;;;;;;;22.58;12.88;;;12.20;99.90;;;;;;4972505;28;20168;-54
2022/06/05 02:30:08;;;;;;;18.02;12.13;;;12.20;99.90;;;;;;4972792;28;20113;-56
2022/06/05 02:32:42;;;;;;;20.38;11.60;;;12.20;99.90;;;;;;4975582;28;20054;-55
2022/06/05 02:35:18;;;;;;;17.10;11.18;;;12.20;99.90;;;;;;4968044;28;20044;-56
2022/06/05 02:38:23;;;;;;;14.98;10.93;;;12.20;99.90;;;;;;4963136;28;20050;-58
2022/06/05 02:41:08;;;;;;;16.27;11.02;;;12.20;99.90;;;;;;4975732;28;20046;-57
2022/06/05 02:43:40;;;;;;;22.20;12.45;;;12.20;99.90;;;;;;4969563;28;20314;-54
2022/06/05 02:46:18;;;;;;;18.25;11.23;;;12.20;99.90;;;;;;4965920;28;20034;-57
2022/06/05 02:49:09;;;;;;;17.52;11.15;;;12.20;99.90;;;;;;4983811;28;20046;-55
2022/06/05 02:51:39;;;;;;;18.45;12.52;;;12.20;99.90;;;;;;4975611;28;20073;-56
2022/06/05 02:54:05;;;;;;;21.35;11.35;;;12.20;99.90;;;;;;4978261;28;20418;-57
2022/06/05 02:56:32;;;;;;;21.48;12.13;;;12.20;99.90;;;;;;4955976;28;20042;-58
2022/06/05 02:59:00;;;;;;;23.08;13.20;;;12.20;99.90;;;;;;4977531;28;20625;-58
2022/06/05 03:04:11;;;;;;;21.48;13.20;;;12.20;99.90;;;;;;4973362;28;20046;-55
2022/06/05 03:06:39;;;;;;;16.92;11.13;;;12.30;99.90;;;;;;4969708;28;20070;-57
2022/06/05 03:09:06;;;;;;;19.17;11.57;;;12.20;99.90;;;;;;4958058;28;20820;-56
2022/06/05 03:11:32;;;;;;;23.83;11.15;;;12.20;99.90;;;;;;4956163;28;20082;-56
2022/06/05 03:13:58;;;;;;;24.85;12.52;;;12.20;99.90;;;;;;4974401;28;20544;-58
2022/06/05 03:16:30;;;;;;;22.13;12.57;;;12.20;99.90;;;;;;4971710;28;22343;-58
2022/06/05 03:18:56;;;;;;;21.60;13.40;;;12.30;99.90;;;;;;4963854;28;20492;-56
2022/06/05 03:21:22;;;;;;;21.65;12.75;;;12.30;99.90;;;;;;4977267;28;20057;-55
2022/06/05 03:23:48;;;;;;;21.65;12.73;;;12.30;99.90;;;;;;4957641;28;20285;-59
2022/06/05 03:26:14;;;;;;;23.17;12.88;;;12.30;99.90;;;;;;4978622;28;20564;-55
2022/06/05 03:28:40;;;;;;;18.42;11.80;;;12.30;99.90;;;;;;4992072;28;20033;-58
2022/06/05 03:31:08;;;;;;;17.42;12.60;;;12.30;99.90;;;;;;4976090;28;20069;-57
2022/06/05 03:33:34;;;;;;;24.40;13.30;;;12.30;99.90;;;;;;4952032;28;20074;-55
2022/06/05 03:36:00;;;;;;;21.75;13.40;;;12.40;99.90;;;;;;4966825;28;20616;-58
2022/06/05 03:38:26;;;;;;;21.58;12.35;;;12.40;99.90;;;;;;4972635;28;20656;-54
2022/06/05 03:40:51;;;;;;;16.65;12.30;;;12.40;99.90;;;;;;4959779;28;20268;-59
2022/06/05 03:43:18;;;;;;;22.63;13.90;;;12.40;99.90;;;;;;4976877;28;21614;-55
2022/06/05 03:45:44;;;;;;;24.80;14.15;;;12.40;99.90;;;;;;4977141;28;20054;-57
2022/06/05 03:48:10;;;;;;;27.08;14.60;;;12.40;99.90;;;;;;4978146;28;20046;-57
2022/06/05 03:50:40;;;;;;;27.40;15.25;;;12.50;99.90;;;;;;4975028;28;20049;-57
2022/06/05 03:53:07;;;;;;;26.38;15.85;;;12.50;99.90;;;;;;4975928;28;20081;-57
2022/06/05 03:55:32;;;;;;;24.73;15.32;;;12.60;99.90;;;;;;4990304;28;20053;-58
2022/06/05 03:57:58;;;;;;;24.73;15.18;;;12.60;99.90;;;;;;4975684;28;20038;-56
2022/06/05 04:00:24;;;;;;;29.17;16.63;;;12.60;99.90;;;;;;4979468;28;20625;-56
2022/06/05 04:02:50;;;;;;;23.77;14.82;;;12.60;99.90;;;;;;4975800;28;20520;-53
2022/06/05 04:05:19;;;;;;;24.13;16.30;;;12.60;99.90;;;;;;4970171;28;20217;-52
2022/06/05 04:07:46;;;;;;;25.95;16.05;;;12.70;99.90;;;;;;4974175;28;20437;-58
2022/06/05 04:10:14;;;;;;;26.08;15.75;;;12.70;99.90;;;;;;4970493;28;21773;-55
2022/06/05 04:12:39;;;;;;;28.75;15.75;;;12.70;99.90;;;;;;4970053;28;20054;-58
2022/06/05 04:15:06;;;;;;;30.08;15.95;;;12.80;99.90;;;;;;4962221;28;20046;-56
2022/06/05 04:17:31;;;;;;;29.38;16.92;;;12.80;99.90;;;;;;4952696;28;20038;-58
2022/06/05 04:19:57;;;;;;;25.27;15.85;;;12.80;99.90;;;;;;4952813;28;20060;-56
2022/06/05 04:22:23;;;;;;;23.70;14.93;;;12.80;99.90;;;;;;4974470;28;20055;-56
2022/06/05 04:24:49;;;;;;;24.35;15.80;;;12.90;99.90;;;;;;4972856;28;20073;-56
2022/06/05 04:27:14;;;;;;;28.30;15.65;;;12.90;99.90;;;;;;4987424;28;20129;-58
2022/06/05 04:29:40;;;;;;;27.95;16.05;;;13.00;99.90;;;;;;4974570;28;20050;-56
2022/06/05 04:32:06;;;;;;;23.10;14.35;;;13.00;99.90;;;;;;4974734;28;20129;-60
2022/06/05 04:34:32;;;;;;;23.77;14.70;;;13.00;99.90;;;;;;4968883;28;20045;-58
2022/06/05 04:36:58;;;;;;;24.80;14.85;;;13.00;99.90;;;;;;4965273;28;20034;-59
2022/06/05 04:39:24;;;;;;;19.23;14.00;;;13.10;99.90;;;;;;4966908;28;20196;-57
2022/06/05 04:41:49;;;;;;;23.00;14.30;;;13.10;99.90;;;;;;4967347;28;20054;-54
2022/06/05 04:44:17;;;;;;;21.60;13.65;;;13.20;99.90;;;;;;4977812;28;20030;-58
2022/06/05 04:46:43;;;;;;;23.73;14.93;;;13.20;99.90;;;;;;4966752;28;20536;-57
2022/06/05 04:49:10;;;;;;;22.13;12.80;;;13.20;99.90;;;;;;4959591;28;20046;-56
2022/06/05 04:51:36;;;;;;;19.65;13.73;;;13.20;99.90;;;;;;4946549;28;20057;-57
2022/06/05 04:54:04;;;;;;;28.35;14.15;;;13.30;99.90;;;;;;4972565;28;20038;-59
2022/06/05 04:56:32;;;;;;;21.48;13.50;;;13.30;99.90;;;;;;4970666;28;20038;-57
2022/06/05 04:58:58;;;;;;;18.98;12.27;;;13.30;99.90;;;;;;4971073;28;20061;-57
2022/06/05 05:01:27;;;;;;;21.42;12.98;;;13.40;99.90;;;;;;4975359;28;20078;-57
2022/06/05 05:03:56;;;;;;;20.92;13.32;;;13.40;99.90;;;;;;4977648;28;20042;-56
2022/06/05 05:06:23;;;;;;;20.15;13.57;;;13.40;99.90;;;;;;4971793;28;20042;-59
2022/06/05 05:08:48;;;;;;;20.05;13.43;;;13.40;99.90;;;;;;4976240;28;20215;-59
2022/06/05 05:11:15;;;;;;;19.45;13.18;;;13.50;99.90;;;;;;4973586;28;20050;-56
2022/06/05 05:13:41;;;;;;;21.85;13.65;;;13.60;99.90;;;;;;4991403;23;20038;-62
2022/06/05 05:16:07;;;;;;;19.23;13.48;;;13.50;99.90;;;;;;4979704;28;20141;-61
2022/06/05 05:18:33;;;;;;;20.58;12.90;;;13.60;99.90;;;;;;4983806;28;20042;-59
2022/06/05 05:21:11;;;;;;;23.02;13.13;;;13.70;99.90;;;;;;4982290;28;20485;-61
2022/06/05 05:23:37;;;;;;;21.98;13.82;;;13.80;99.90;;;;;;4988597;28;20042;-63
2022/06/05 05:26:21;;;;;;;21.25;13.57;;;13.80;99.90;;;;;;4974918;28;20092;-61
2022/06/05 05:28:48;;;;;;;20.23;12.73;;;13.90;99.90;;;;;;4990512;28;20267;-60
2022/06/05 05:31:20;;;;;;;20.60;13.50;;;13.90;99.90;;;;;;4986246;28;20046;-59
2022/06/05 05:33:49;;;;;;;24.73;13.63;;;14.00;99.90;;;;;;4983911;28;20043;-63
2022/06/05 05:36:19;;;;;;;16.20;12.27;;;14.10;99.90;;;;;;4972861;28;20115;-61
2022/06/05 05:44:20;;;;;;;20.38;13.10;;;14.20;99.90;;;;;;4990793;28;20042;-59
2022/06/05 05:46:46;;;;;;;18.35;12.35;;;14.20;99.90;;;;;;4985682;28;20100;-59
2022/06/05 05:49:12;;;;;;;20.55;13.23;;;14.30;99.90;;;;;;4987251;28;20058;-60
2022/06/05 05:51:38;;;;;;;19.20;13.25;;;14.30;99.90;;;;;;4961458;28;20038;-61
2022/06/05 05:54:05;;;;;;;16.00;11.80;;;14.30;99.90;;;;;;4985778;28;20046;-63
2022/06/05 05:56:31;;;;;;;20.02;13.52;;;14.30;99.90;;;;;;4980635;28;20055;-60
2022/06/05 05:58:57;;;;;;;20.10;13.43;;;14.30;99.90;;;;;;4977876;28;20045;-61
2022/06/05 06:01:22;;;;;;;19.75;12.68;;;14.40;99.90;;;;;;4980745;28;20446;-61
2022/06/05 06:03:48;;;;;;;20.33;12.50;;;14.40;99.90;;;;;;4987552;28;20081;-60
2022/06/05 06:06:14;;;;;;;19.52;13.10;;;14.50;99.90;;;;;;4985174;28;20039;-61
2022/06/05 06:08:40;;;;;;;19.52;13.13;;;14.60;99.90;;;;;;4990766;28;20431;-64
2022/06/05 06:11:06;;;;;;;16.20;12.75;;;14.60;99.90;;;;;;4987414;28;20050;-62
2022/06/05 06:13:32;;;;;;;18.58;12.93;;;14.60;99.90;;;;;;4990230;28;20109;-59
2022/06/05 06:15:57;;;;;;;18.25;13.65;;;14.60;99.90;;;;;;4990349;28;20042;-60
2022/06/05 06:18:23;;;;;;;24.35;13.88;;;14.60;99.90;;;;;;4991382;28;20038;-60
2022/06/05 06:20:49;;;;;;;17.25;12.88;;;14.70;99.90;;;;;;4990159;28;20045;-60
2022/06/05 06:23:15;;;;;;;20.70;13.32;;;14.70;99.90;;;;;;4976569;28;20398;-63
2022/06/05 06:25:42;;;;;;;17.50;13.20;;;14.70;99.90;;;;;;4990969;28;20042;-64
2022/06/05 06:28:08;;;;;;;17.50;12.68;;;14.70;99.90;;;;;;4985665;28;20073;-61
2022/06/05 06:30:35;;;;;;;20.00;13.15;;;14.80;99.90;;;;;;4990981;28;20046;-60
2022/06/05 06:33:01;;;;;;;17.15;12.80;;;14.80;99.90;;;;;;4984739;28;20038;-61
2022/06/05 06:35:27;;;;;;;16.98;12.32;;;14.80;99.90;;;;;;4988124;28;20129;-61
2022/06/05 06:37:54;;;;;;;17.25;12.55;;;14.90;99.90;;;;;;4987506;28;20082;-63
2022/06/05 06:40:19;;;;;;;18.90;12.77;;;15.00;99.90;;;;;;4986798;28;20093;-63
2022/06/05 06:42:45;;;;;;;16.75;12.25;;;15.10;99.90;;;;;;4978133;28;20051;-60
2022/06/05 06:45:11;;;;;;;20.00;13.02;;;15.10;99.90;;;;;;4959130;28;20086;-60
2022/06/05 06:47:37;;;;;;;19.25;12.80;;;15.20;99.90;;;;;;4985711;28;20477;-61
2022/06/05 06:50:04;;;;;;;16.85;12.35;;;15.20;99.90;;;;;;4980439;28;20513;-61
2022/06/05 06:52:30;;;;;;;15.13;13.48;;;15.30;99.90;;;;;;4984809;28;20049;-60
2022/06/05 06:54:55;;;;;;;17.33;12.60;;;15.40;99.90;;;;;;4979814;28;20057;-64
2022/06/05 06:57:24;;;;;;;16.83;12.63;;;15.40;99.90;;;;;;4983413;28;20043;-61
2022/06/05 06:59:50;;;;;;;16.77;12.85;;;15.50;99.90;;;;;;4972408;28;20046;-60
2022/06/05 07:02:16;;;;;;;19.73;13.57;;;15.50;99.90;;;;;;4987166;28;20096;-61
2022/06/05 07:04:42;;;;;;;19.50;13.27;;;15.50;99.90;;;;;;4985935;28;20176;-61
2022/06/05 07:07:07;;;;;;;15.02;12.70;;;15.50;99.90;;;;;;4967161;28;20112;-61
2022/06/05 07:09:33;;;;;;;16.85;12.90;;;15.60;99.90;;;;;;4976800;28;20229;-63
2022/06/05 07:11:59;;;;;;;17.25;13.35;;;15.70;99.90;;;;;;4987219;28;20039;-61
2022/06/05 07:14:26;;;;;;;14.15;12.43;;;15.80;99.90;;;;;;4987477;28;20046;-61
2022/06/05 07:16:53;;;;;;;17.13;13.02;;;15.80;99.90;;;;;;4989681;28;20061;-61
2022/06/05 07:19:18;;;;;;;18.85;12.77;;;15.90;99.90;;;;;;4985666;28;20039;-60
2022/06/05 07:21:44;;;;;;;16.45;12.70;;;16.00;99.90;;;;;;4980105;28;20579;-59
2022/06/05 07:24:10;;;;;;;17.27;12.80;;;16.00;99.90;;;;;;4993550;28;20047;-63
2022/06/05 07:26:36;;;;;;;17.65;12.75;;;16.10;99.90;;;;;;4973094;28;20373;-60
2022/06/05 07:29:02;;;;;;;19.23;12.60;;;16.20;99.90;;;;;;4989291;28;20051;-61
2022/06/05 07:31:29;;;;;;;18.52;12.70;;;16.30;99.90;;;;;;4985137;28;20096;-60
2022/06/05 07:33:56;;;;;;;15.68;11.32;;;16.40;99.90;;;;;;4989485;28;20413;-59
2022/06/05 07:36:22;;;;;;;18.13;11.98;;;16.50;99.90;;;;;;4985762;28;20042;-61
2022/06/05 07:38:49;;;;;;;14.85;12.27;;;16.70;99.90;;;;;;4971444;28;20053;-63
2022/06/05 07:41:21;;;;;;;14.77;12.68;;;16.80;99.90;;;;;;4987047;28;20042;-61
2022/06/05 07:43:47;;;;;;;17.00;11.80;;;16.90;99.90;;;;;;4989846;28;20042;-62
2022/06/05 07:46:13;;;;;;;14.68;11.57;;;17.00;99.90;;;;;;4973739;28;20137;-60
2022/06/05 07:48:39;;;;;;;17.80;12.15;;;17.10;99.90;;;;;;4989460;28;20133;-60
2022/06/05 07:56:38;;;;;;;14.25;11.00;;;17.50;99.90;;;;;;4957002;28;20054;-61
2022/06/05 07:59:03;;;;;;;12.63;10.25;;;17.60;99.90;;;;;;4972112;28;20054;-62
2022/06/05 08:01:29;;;;;;;12.35;11.05;;;17.60;99.90;;;;;;4954634;28;20049;-61
2022/06/05 08:03:55;;;;;;;16.02;11.05;;;17.70;99.90;;;;;;4974391;28;20038;-61
2022/06/05 08:06:21;;;;;;;14.50;10.90;;;17.80;99.90;;;;;;4973590;28;20050;-61
2022/06/05 08:08:46;;;;;;;14.82;11.57;;;18.00;99.90;;;;;;4978781;28;20464;-62
2022/06/05 08:11:13;;;;;;;12.50;10.73;;;18.00;99.90;;;;;;4993379;28;20045;-61
2022/06/05 08:13:38;;;;;;;14.25;10.75;;;18.10;99.90;;;;;;4994241;28;20038;-63
2022/06/05 08:16:05;;;;;;;13.65;11.35;;;18.10;99.90;;;;;;4977178;28;20057;-62
2022/06/05 08:18:30;;;;;;;12.85;10.60;;;18.30;99.90;;;;;;4993214;28;20531;-60
2022/06/05 08:20:56;;;;;;;14.18;10.10;;;18.30;99.90;;;;;;4994250;28;20034;-61
2022/06/05 08:23:23;;;;;;;13.98;11.02;;;18.40;99.90;;;;;;4994195;28;20104;-62
2022/06/05 08:25:49;;;;;;;11.55;10.05;;;18.50;99.90;;;;;;4993781;28;20132;-59
2022/06/05 08:28:16;;;;;;;17.42;11.45;;;18.60;99.90;;;;;;4992786;28;20061;-61
2022/06/05 08:30:42;;;;;;;12.23;10.85;;;18.70;99.90;;;;;;4984990;28;20465;-63
2022/06/05 08:33:08;;;;;;;14.23;9.45;;;18.70;99.90;;;;;;4977000;28;20046;-61
2022/06/05 08:35:34;;;;;;;13.50;10.32;;;18.70;99.90;;;;;;4994437;28;20050;-61
2022/06/05 08:44:13;;;;;;;12.23;9.65;;;18.90;99.90;;;;;;4994112;28;20098;-60
2022/06/05 08:46:57;;;;;;;13.68;9.95;;;19.00;99.90;;;;;;4994271;28;20493;-60
2022/06/05 08:49:45;;;;;;;12.27;9.18;;;19.10;99.90;;;;;;4980131;28;20146;-60
2022/06/05 08:52:27;;;;;;;11.60;9.25;;;19.20;99.90;;;;;;4991200;28;20048;-57
2022/06/05 08:55:26;;;;;;;12.80;9.52;;;19.20;99.90;;;;;;4992766;28;20521;-56
2022/06/05 08:57:57;;;;;;;10.75;9.18;;;19.30;99.90;;;;;;4991523;28;21464;-57
2022/06/05 09:00:41;;;;;;;11.18;9.18;;;19.40;99.90;;;;;;4992849;28;20042;-61
2022/06/05 09:03:26;;;;;;;12.38;9.30;;;19.50;99.90;;;;;;4991672;28;20463;-59
2022/06/05 09:05:59;;;;;;;10.35;8.95;;;19.50;99.90;;;;;;4972703;28;20113;-60
2022/06/05 09:08:32;;;;;;;10.75;8.52;;;19.60;99.90;;;;;;4972941;28;20556;-61
2022/06/05 09:11:03;;;;;;;12.48;9.77;;;19.70;99.90;;;;;;4970757;28;20046;-61
2022/06/05 09:13:52;;;;;;;11.45;9.57;;;19.70;99.90;;;;;;4956212;28;20042;-64
2022/06/05 09:16:28;;;;;;;17.23;9.77;;;19.80;99.90;;;;;;4972820;28;20057;-60
2022/06/05 09:18:54;;;;;;;10.60;9.00;;;19.90;99.90;;;;;;4974130;28;20052;-62
2022/06/05 09:21:33;;;;;;;10.02;9.02;;;19.90;99.90;;;;;;4973811;28;20053;-62
2022/06/05 09:24:07;;;;;;;10.65;9.07;;;20.00;99.90;;;;;;4976926;28;20030;-58
2022/06/05 09:26:52;;;;;;;11.77;10.05;;;20.00;99.90;;;;;;4992145;28;20108;-62
2022/06/05 09:29:53;;;;;;;13.23;10.07;;;20.10;99.90;;;;;;4978076;28;20043;-62
2022/06/05 09:32:31;;;;;;;10.20;8.93;;;20.20;99.90;;;;;;4977418;28;20188;-58
2022/06/05 09:35:02;;;;;;;12.27;10.00;;;20.30;99.90;;;;;;4989351;28;20053;-61
2022/06/05 09:37:51;;;;;;;10.32;8.80;;;20.40;99.90;;;;;;4992846;28;20409;-61
2022/06/05 09:40:25;;;;;;;12.52;8.90;;;20.60;99.90;;;;;;4975079;28;20090;-62
2022/06/05 09:43:15;;;;;;;13.15;9.85;;;20.70;99.90;;;;;;4992406;28;20049;-61
2022/06/05 09:46:08;;;;;;;11.60;9.90;;;20.80;99.90;;;;;;4991537;28;20050;-61
2022/06/05 09:48:52;;;;;;;11.63;9.82;;;20.70;99.90;;;;;;4991635;28;20058;-60
2022/06/05 09:51:20;;;;;;;15.15;10.48;;;20.80;99.90;;;;;;4992987;28;20130;-61
2022/06/05 09:53:54;;;;;;;10.60;9.60;;;20.70;99.90;;;;;;4991471;28;20278;-59
2022/06/05 09:58:24;;;;;;;10.30;9.02;;;20.80;99.90;;;;;;5008069;28;20557;-60
2022/06/05 09:59:33;;;;;;;12.95;10.15;;;20.90;99.90;;;;;;4991221;28;20050;-60
2022/06/05 10:02:01;;;;;;;12.93;11.23;;;20.90;99.90;;;;;;4978919;28;20039;-63
2022/06/05 10:04:32;;;;;;;11.35;10.02;;;20.80;99.90;;;;;;4971658;28;20047;-60
2022/06/05 10:07:13;;;;;;;11.45;10.18;;;20.90;99.90;;;;;;4973036;28;20046;-59
2022/06/05 10:09:45;;;;;;;10.50;8.95;;;20.90;99.90;;;;;;4973091;28;20471;-62
2022/06/05 10:12:42;;;;;;;11.90;10.70;;;20.90;99.90;;;;;;4955488;28;20371;-59
2022/06/05 10:15:26;;;;;;;13.32;10.02;;;20.90;99.90;;;;;;4973016;28;20465;-60
2022/06/05 10:17:57;;;;;;;11.32;9.70;;;21.00;99.90;;;;;;4972704;28;20058;-61
2022/06/05 10:20:22;;;;;;;10.10;8.18;;;21.00;99.90;;;;;;4973261;28;20042;-61
2022/06/05 10:23:00;;;;;;;10.60;9.25;;;20.90;99.90;;;;;;4971339;28;20560;-59
2022/06/05 10:26:00;;;;;;;11.73;9.98;;;20.90;99.90;;;;;;4970903;28;20058;-64
2022/06/05 10:28:31;;;;;;;10.23;9.00;;;20.80;99.90;;;;;;4971258;28;20059;-61
2022/06/05 10:31:04;;;;;;;10.13;9.00;;;20.90;99.90;;;;;;4972916;28;20117;-60
2022/06/05 10:33:39;;;;;;;11.25;9.82;;;20.90;99.90;;;;;;4971221;28;20046;-63
2022/06/05 10:36:30;;;;;;;10.57;9.57;;;20.90;99.90;;;;;;4972566;28;20549;-61
2022/06/05 10:39:11;;;;;;;11.15;9.40;;;21.00;99.90;;;;;;4954987;28;20051;-60
2022/06/05 10:41:40;;;;;;;10.50;8.95;;;21.10;99.90;;;;;;4985809;28;20034;-62
2022/06/05 10:44:24;;;;;;;9.18;8.20;;;21.20;99.90;;;;;;4991598;28;20077;-61
2022/06/05 10:47:05;;;;;;;9.27;8.13;;;21.30;99.90;;;;;;4990581;28;20089;-62
2022/06/05 10:49:54;;;;;;;8.68;7.85;;;21.50;99.90;;;;;;4992068;28;20551;-61
2022/06/05 10:52:34;;;;;;;10.07;8.98;;;21.60;99.90;;;;;;4989735;28;20121;-61
2022/06/05 10:55:23;;;;;;;7.90;7.20;;;21.70;99.90;;;;;;4980017;28;20046;-61
2022/06/05 10:58:05;;;;;;;8.95;7.88;;;21.70;99.90;;;;;;4979060;28;20101;-60
2022/06/05 11:00:57;;;;;;;10.95;8.75;;;21.70;99.90;;;;;;4987351;28;20053;-62
2022/06/05 11:03:46;;;;;;;9.45;8.48;;;21.70;99.90;;;;;;4975180;28;20058;-60
2022/06/05 11:06:36;;;;;;;9.82;8.82;;;21.70;99.90;;;;;;4972046;28;20174;-61
2022/06/05 11:09:14;;;;;;;10.63;8.77;;;21.70;99.90;;;;;;4982400;28;20050;-60
2022/06/05 11:15:26;;;;;;;10.27;9.18;;;21.80;99.90;;;;;;4998629;23;20531;-60
2022/06/05 11:18:03;;;;;;;8.85;7.97;;;21.80;99.90;;;;;;4992866;28;20081;-60
2022/06/05 11:20:29;;;;;;;10.30;8.75;;;21.80;99.90;;;;;;4972277;28;20046;-62
2022/06/05 11:22:58;;;;;;;11.43;8.13;;;21.80;99.90;;;;;;4953455;28;20209;-57
2022/06/05 11:25:31;;;;;;;9.95;7.90;;;21.80;99.90;;;;;;4972628;28;20180;-63
2022/06/05 11:28:24;;;;;;;10.90;9.18;;;21.80;99.90;;;;;;4985978;28;20062;-60
2022/06/05 11:31:05;;;;;;;9.30;8.00;;;21.80;99.90;;;;;;4987662;28;20077;-60
2022/06/05 11:33:38;;;;;;;10.90;8.43;;;21.80;99.90;;;;;;4977375;28;20048;-58
2022/06/05 11:36:09;;;;;;;9.57;7.78;;;21.80;99.90;;;;;;4952101;28;20565;-58
2022/06/05 11:38:57;;;;;;;9.73;7.30;;;21.80;99.90;;;;;;4966869;28;20038;-59
2022/06/05 11:41:43;;;;;;;9.25;7.63;;;21.90;99.90;;;;;;4984945;28;20705;-56
2022/06/05 11:44:26;;;;;;;7.82;6.47;;;21.90;99.90;;;;;;4979624;28;20079;-62
2022/06/05 11:47:03;;;;;;;10.48;7.30;;;21.90;99.90;;;;;;4993731;28;20050;-61
2022/06/05 11:49:51;;;;;;;8.30;6.45;;;21.90;99.90;;;;;;4971907;28;20042;-59
2022/06/05 11:52:38;;;;;;;9.73;7.13;;;21.90;99.90;;;;;;4975171;28;21562;-56
2022/06/05 11:55:20;;;;;;;8.30;6.63;;;21.90;99.90;;;;;;4980572;28;20042;-61
2022/06/05 11:57:59;;;;;;;9.75;7.47;;;21.80;99.90;;;;;;4978809;28;20050;-59
2022/06/05 12:00:35;;;;;;;7.75;6.18;;;21.80;99.90;;;;;;4972889;28;20533;-59
2022/06/05 12:03:30;;;;;;;7.03;6.32;;;21.90;99.90;;;;;;4974707;28;20054;-59
2022/06/05 12:05:59;;;;;;;7.20;6.50;;;22.00;99.90;;;;;;4995471;28;20068;-59
2022/06/05 12:08:32;;;;;;;8.75;6.57;;;22.00;99.90;;;;;;4976228;28;20081;-59
2022/06/05 12:11:09;;;;;;;;;;;22.00;99.90;;;;;;4978261;28;20121;-59
2022/06/05 12:14:09;;;;;;;7.13;6.43;;;22.00;99.90;;;;;;4976708;28;19934;-56
2022/06/05 12:16:45;;;;;;;8.02;6.65;;;22.10;99.90;;;;;;4977405;28;20042;-58
2022/06/05 12:19:29;;;;;;;7.53;6.63;;;22.10;99.90;;;;;;4966575;28;20140;-58
2022/06/05 12:22:14;;;;;;;9.77;6.00;;;22.20;99.90;;;;;;4982723;28;20049;-58
2022/06/05 12:25:05;;;;;;;8.90;6.75;;;22.30;99.90;;;;;;4983377;28;20093;-63
2022/06/05 12:27:54;;;;;;;7.10;6.40;;;22.30;99.90;;;;;;4961731;28;20046;-59
2022/06/05 12:30:29;;;;;;;9.02;6.85;;;22.40;99.90;;;;;;4973050;28;20098;-63
2022/06/05 12:33:11;;;;;;;8.40;6.60;;;22.40;99.90;;;;;;4972578;28;20061;-53
2022/06/05 12:35:40;;;;;;;7.15;6.45;;;22.50;99.90;;;;;;4989501;28;20047;-59
2022/06/05 12:38:41;;;;;;;7.32;6.55;;;22.50;99.90;;;;;;4958444;28;20049;-60
2022/06/05 12:41:16;;;;;;;9.50;6.07;;;22.50;99.90;;;;;;4976887;28;20077;-56
2022/06/05 12:43:56;;;;;;;13.52;6.68;;;22.50;99.90;;;;;;4977238;28;20038;-58
2022/06/05 12:46:36;;;;;;;7.50;6.30;;;22.50;99.90;;;;;;4974733;28;20053;-57
2022/06/05 12:49:34;;;;;;;6.65;5.97;;;22.50;99.90;;;;;;4975289;28;20137;-59
2022/06/05 12:52:14;;;;;;;5.85;5.30;;;22.60;99.90;;;;;;4969360;28;20063;-59
2022/06/05 12:55:11;;;;;;;7.13;6.40;;;22.60;99.90;;;;;;4967860;28;20232;-57
2022/06/05 12:57:45;;;;;;;8.60;6.22;;;22.50;99.90;;;;;;4967897;28;20050;-59
2022/06/05 13:00:13;;;;;;;9.50;6.45;;;22.50;99.90;;;;;;4974972;28;20053;-59
2022/06/05 13:02:54;;;;;;;8.60;6.68;;;22.50;99.90;;;;;;4995686;28;20285;-56
2022/06/05 13:05:26;;;;;;;6.72;5.70;;;22.50;99.90;;;;;;4955566;28;20034;-56
2022/06/05 13:07:59;;;;;;;7.43;6.22;;;22.50;99.90;;;;;;4971236;28;20049;-57
2022/06/05 13:10:42;;;;;;;6.95;6.25;;;22.50;99.90;;;;;;4972893;28;20044;-60
2022/06/05 13:13:17;;;;;;;10.07;6.72;;;22.60;99.90;;;;;;4967920;28;20500;-60
2022/06/05 13:15:50;;;;;;;7.20;5.97;;;22.60;99.90;;;;;;4971882;28;20137;-58
2022/06/05 13:18:21;;;;;;;8.50;6.43;;;22.60;99.90;;;;;;4981898;28;20045;-56
2022/06/05 13:20:50;;;;;;;8.48;6.03;;;22.70;99.90;;;;;;5000663;28;20709;-56
2022/06/05 13:23:31;;;;;;;7.97;6.65;;;22.70;99.90;;;;;;4977772;28;20400;-62